sensor_id;sensor_type;location;lat;lon;timestamp;pressure;altitude;pressure_sealevel;temperature;humidity
30421;BME280;17218;54.070;10.012;2023-03-26T00:01:35;99863.84;;;7.26;100.00
30421;BME280;17218;54.070;10.012;2023-03-26T00:04:03;99869.88;;;7.24;100.00
30421;BME280;17218;54.070;10.012;2023-03-26T00:06:32;99869.06;;;7.19;100.00
30421;BME280;17218;54.070;10.012;2023-03-26T00:09:02;99871.66;;;7.17;100.00
30421;BME280;17218;54.070;10.012;2023-03-26T00:11:29;99866.53;;;7.15;100.00
30421;BME280;17218;54.070;10.012;2023-03-26T00:13:57;99873.34;;;7.20;100.00
30421;BME280;17218;54.070;10.012;2023-03-26T00:16:25;99879.34;;;7.22;100.00
30421;BME280;17218;54.070;10.012;2023-03-26T00:18:52;99882.84;;;7.13;100.00
30421;BME280;17218;54.070;10.012;2023-03-26T00:21:20;99888.78;;;7.23;100.00
30421;BME280;17218;54.070;10.012;2023-03-26T00:23:50;99881.84;;;7.31;100.00
30421;BME280;17218;54.070;10.012;2023-03-26T00:26:17;99893.03;;;7.27;100.00
30421;BME280;17218;54.070;10.012;2023-03-26T00:28:44;99895.69;;;7.19;100.00
30421;BME280;17218;54.070;10.012;2023-03-26T00:31:13;99890.59;;;7.05;100.00
30421;BME280;17218;54.070;10.012;2023-03-26T00:33:40;99907.72;;;7.17;100.00
30421;BME280;17218;54.070;10.012;2023-03-26T00:36:09;99917.94;;;7.30;100.00
30421;BME280;17218;54.070;10.012;2023-03-26T00:38:38;99917.88;;;7.34;100.00
30421;BME280;17218;54.070;10.012;2023-03-26T00:41:06;99916.09;;;7.46;100.00
30421;BME280;17218;54.070;10.012;2023-03-26T00:43:43;99927.22;;;7.53;100.00
30421;BME280;17218;54.070;10.012;2023-03-26T00:46:11;99925.47;;;7.58;100.00
30421;BME280;17218;54.070;10.012;2023-03-26T00:48:38;99922.06;;;7.54;100.00
30421;BME280;17218;54.070;10.012;2023-03-26T00:51:07;99923.81;;;7.49;100.00
30421;BME280;17218;54.070;10.012;2023-03-26T00:53:33;99928.16;;;7.40;100.00
30421;BME280;17218;54.070;10.012;2023-03-26T00:56:02;99933.28;;;7.42;100.00
30421;BME280;17218;54.070;10.012;2023-03-26T00:58:29;99922.09;;;7.46;100.00
30421;BME280;17218;54.070;10.012;2023-03-26T01:00:58;99925.50;;;7.50;100.00
30421;BME280;17218;54.070;10.012;2023-03-26T01:03:30;99931.47;;;7.57;100.00
30421;BME280;17218;54.070;10.012;2023-03-26T01:05:59;99936.78;;;7.35;100.00
30421;BME280;17218;54.070;10.012;2023-03-26T01:08:31;99939.50;;;7.11;100.00
30421;BME280;17218;54.070;10.012;2023-03-26T01:11:02;99936.84;;;7.24;100.00
30421;BME280;17218;54.070;10.012;2023-03-26T01:13:32;99948.03;;;7.21;100.00
30421;BME280;17218;54.070;10.012;2023-03-26T01:16:00;99953.25;;;7.10;100.00
30421;BME280;17218;54.070;10.012;2023-03-26T01:18:31;99944.69;;;7.05;100.00
30421;BME280;17218;54.070;10.012;2023-03-26T01:21:05;99955.88;;;6.98;100.00
30421;BME280;17218;54.070;10.012;2023-03-26T01:23:40;99955.03;;;6.99;100.00
30421;BME280;17218;54.070;10.012;2023-03-26T01:26:18;99952.47;;;6.99;100.00
30421;BME280;17218;54.070;10.012;2023-03-26T01:28:53;99947.31;;;6.94;100.00
30421;BME280;17218;54.070;10.012;2023-03-26T01:31:25;99961.06;;;6.95;100.00
30421;BME280;17218;54.070;10.012;2023-03-26T01:33:57;99969.66;;;6.90;100.00
30421;BME280;17218;54.070;10.012;2023-03-26T01:36:38;99965.41;;;6.80;100.00
30421;BME280;17218;54.070;10.012;2023-03-26T01:39:09;99965.41;;;6.77;100.00
30421;BME280;17218;54.070;10.012;2023-03-26T01:41:46;99964.63;;;6.64;100.00
30421;BME280;17218;54.070;10.012;2023-03-26T01:44:19;99977.47;;;6.68;100.00
30421;BME280;17218;54.070;10.012;2023-03-26T01:46:48;99978.34;;;6.67;100.00
30421;BME280;17218;54.070;10.012;2023-03-26T01:49:17;99979.22;;;6.63;100.00
30421;BME280;17218;54.070;10.012;2023-03-26T01:51:44;99977.47;;;6.70;100.00
30421;BME280;17218;54.070;10.012;2023-03-26T01:54:14;99970.59;;;6.66;100.00
30421;BME280;17218;54.070;10.012;2023-03-26T01:56:50;99984.34;;;6.63;100.00
30421;BME280;17218;54.070;10.012;2023-03-26T01:59:32;99985.19;;;6.68;100.00
30421;BME280;17218;54.070;10.012;2023-03-26T02:02:09;99985.16;;;6.79;100.00
30421;BME280;17218;54.070;10.012;2023-03-26T02:04:41;99982.59;;;6.70;100.00
30421;BME280;17218;54.070;10.012;2023-03-26T02:07:19;99989.44;;;6.76;100.00
30421;BME280;17218;54.070;10.012;2023-03-26T02:09:49;99988.56;;;6.77;100.00
30421;BME280;17218;54.070;10.012;2023-03-26T02:12:18;99991.13;;;6.83;100.00
30421;BME280;17218;54.070;10.012;2023-03-26T02:14:47;99981.72;;;6.79;100.00
30421;BME280;17218;54.070;10.012;2023-03-26T02:17:14;99984.34;;;6.71;100.00
30421;BME280;17218;54.070;10.012;2023-03-26T02:19:41;99995.53;;;6.58;100.00
30421;BME280;17218;54.070;10.012;2023-03-26T02:22:07;99995.50;;;6.61;100.00
30421;BME280;17218;54.070;10.012;2023-03-26T02:24:36;100001.50;;;6.66;100.00
30421;BME280;17218;54.070;10.012;2023-03-26T02:27:02;99998.97;;;6.50;100.00
30421;BME280;17218;54.070;10.012;2023-03-26T02:29:33;99994.69;;;6.40;100.00
30421;BME280;17218;54.070;10.012;2023-03-26T02:32:02;99995.56;;;6.37;100.00
30421;BME280;17218;54.070;10.012;2023-03-26T02:34:29;99999.00;;;6.25;100.00
30421;BME280;17218;54.070;10.012;2023-03-26T02:36:55;99990.44;;;6.34;100.00
30421;BME280;17218;54.070;10.012;2023-03-26T02:39:22;99995.56;;;6.45;100.00
30421;BME280;17218;54.070;10.012;2023-03-26T02:41:48;99993.84;;;6.47;100.00
30421;BME280;17218;54.070;10.012;2023-03-26T02:44:15;99986.09;;;6.46;100.00
30421;BME280;17218;54.070;10.012;2023-03-26T02:46:43;99994.69;;;6.40;100.00
30421;BME280;17218;54.070;10.012;2023-03-26T02:49:09;99993.00;;;6.28;100.00
30421;BME280;17218;54.070;10.012;2023-03-26T02:51:36;99996.44;;;6.25;100.00
30421;BME280;17218;54.070;10.012;2023-03-26T02:54:03;99993.03;;;6.23;100.00
30421;BME280;17218;54.070;10.012;2023-03-26T02:56:31;100002.44;;;6.30;100.00
30421;BME280;17218;54.070;10.012;2023-03-26T02:58:58;99997.31;;;6.30;100.00
30421;BME280;17218;54.070;10.012;2023-03-26T03:01:24;100007.56;;;6.27;100.00
30421;BME280;17218;54.070;10.012;2023-03-26T03:03:52;99995.59;;;6.17;100.00
30421;BME280;17218;54.070;10.012;2023-03-26T03:06:18;99993.88;;;6.13;100.00
30421;BME280;17218;54.070;10.012;2023-03-26T03:08:45;99995.59;;;6.06;100.00
30421;BME280;17218;54.070;10.012;2023-03-26T03:11:13;99984.41;;;5.77;100.00
30421;BME280;17218;54.070;10.012;2023-03-26T03:13:40;99994.69;;;5.76;100.00
30421;BME280;17218;54.070;10.012;2023-03-26T03:16:07;99986.13;;;5.75;100.00
30421;BME280;17218;54.070;10.012;2023-03-26T03:18:34;99987.84;;;5.71;100.00
30421;BME280;17218;54.070;10.012;2023-03-26T03:21:02;99997.25;;;5.68;100.00
30421;BME280;17218;54.070;10.012;2023-03-26T03:23:29;100006.72;;;5.77;100.00
30421;BME280;17218;54.070;10.012;2023-03-26T03:25:57;99992.16;;;5.71;100.00
30421;BME280;17218;54.070;10.012;2023-03-26T03:28:24;99990.41;;;5.59;100.00
30421;BME280;17218;54.070;10.012;2023-03-26T03:30:50;99994.69;;;5.68;100.00
30421;BME280;17218;54.070;10.012;2023-03-26T03:33:17;100000.72;;;5.76;100.00
30421;BME280;17218;54.070;10.012;2023-03-26T03:35:44;99996.44;;;5.66;100.00
30421;BME280;17218;54.070;10.012;2023-03-26T03:38:13;99996.41;;;5.63;100.00
30421;BME280;17218;54.070;10.012;2023-03-26T03:40:40;99996.38;;;5.52;100.00
30421;BME280;17218;54.070;10.012;2023-03-26T03:43:07;99998.97;;;5.53;100.00
30421;BME280;17218;54.070;10.012;2023-03-26T03:45:33;100002.41;;;5.52;100.00
30421;BME280;17218;54.070;10.012;2023-03-26T03:48:00;100010.09;;;5.38;100.00
30421;BME280;17218;54.070;10.012;2023-03-26T03:50:27;100009.22;;;5.37;100.00
30421;BME280;17218;54.070;10.012;2023-03-26T03:52:53;99999.81;;;5.41;100.00
30421;BME280;17218;54.070;10.012;2023-03-26T03:55:21;100013.47;;;5.28;100.00
30421;BME280;17218;54.070;10.012;2023-03-26T03:57:48;100016.09;;;5.42;100.00
30421;BME280;17218;54.070;10.012;2023-03-26T04:00:17;100019.50;;;5.48;100.00
30421;BME280;17218;54.070;10.012;2023-03-26T04:02:43;100007.50;;;5.41;100.00
30421;BME280;17218;54.070;10.012;2023-03-26T04:05:10;100016.91;;;5.33;100.00
30421;BME280;17218;54.070;10.012;2023-03-26T04:07:37;100010.06;;;5.29;100.00
30421;BME280;17218;54.070;10.012;2023-03-26T04:10:05;100023.72;;;5.29;100.00
30421;BME280;17218;54.070;10.012;2023-03-26T04:12:33;100014.31;;;5.28;100.00
30421;BME280;17218;54.070;10.012;2023-03-26T04:15:00;100036.56;;;5.28;100.00
30421;BME280;17218;54.070;10.012;2023-03-26T04:17:26;100016.06;;;5.35;100.00
30421;BME280;17218;54.070;10.012;2023-03-26T04:19:54;100016.09;;;5.46;100.00
30421;BME280;17218;54.070;10.012;2023-03-26T04:22:21;100018.66;;;5.51;100.00
30421;BME280;17218;54.070;10.012;2023-03-26T04:24:50;100017.78;;;5.40;100.00
30421;BME280;17218;54.070;10.012;2023-03-26T04:27:21;100011.81;;;5.53;100.00
30421;BME280;17218;54.070;10.012;2023-03-26T04:29:52;100012.69;;;5.66;100.00
30421;BME280;17218;54.070;10.012;2023-03-26T04:32:22;100023.84;;;5.64;100.00
30421;BME280;17218;54.070;10.012;2023-03-26T04:34:50;100027.25;;;5.64;100.00
30421;BME280;17218;54.070;10.012;2023-03-26T04:37:23;100023.75;;;5.37;100.00
30421;BME280;17218;54.070;10.012;2023-03-26T04:39:51;100025.44;;;5.21;100.00
30421;BME280;17218;54.070;10.012;2023-03-26T04:42:18;100027.13;;;5.17;100.00
30421;BME280;17218;54.070;10.012;2023-03-26T04:44:45;100018.59;;;5.28;100.00
30421;BME280;17218;54.070;10.012;2023-03-26T04:47:16;100029.75;;;5.28;100.00
30421;BME280;17218;54.070;10.012;2023-03-26T04:49:43;100015.19;;;5.30;100.00
30421;BME280;17218;54.070;10.012;2023-03-26T04:52:10;100022.88;;;5.22;100.00
30421;BME280;17218;54.070;10.012;2023-03-26T04:54:37;100019.44;;;5.19;100.00
30421;BME280;17218;54.070;10.012;2023-03-26T04:57:06;100027.13;;;5.19;100.00
30421;BME280;17218;54.070;10.012;2023-03-26T04:59:34;100013.41;;;5.06;100.00
30421;BME280;17218;54.070;10.012;2023-03-26T05:02:02;100027.84;;;4.82;100.00
30421;BME280;17218;54.070;10.012;2023-03-26T05:04:30;100025.22;;;4.75;100.00
30421;BME280;17218;54.070;10.012;2023-03-26T05:06:58;100031.16;;;4.63;100.00
30421;BME280;17218;54.070;10.012;2023-03-26T05:09:25;100025.09;;;4.47;100.00
30421;BME280;17218;54.070;10.012;2023-03-26T05:11:52;100034.47;;;4.44;100.00
30421;BME280;17218;54.070;10.012;2023-03-26T05:14:19;100025.00;;;4.35;100.00
30421;BME280;17218;54.070;10.012;2023-03-26T05:16:46;100024.97;;;4.33;100.00
30421;BME280;17218;54.070;10.012;2023-03-26T05:19:13;100017.22;;;4.25;100.00
30421;BME280;17218;54.070;10.012;2023-03-26T05:21:41;100024.09;;;4.25;100.00
30421;BME280;17218;54.070;10.012;2023-03-26T05:24:07;100030.03;;;4.22;100.00
30421;BME280;17218;54.070;10.012;2023-03-26T05:26:34;100029.16;;;4.20;100.00
30421;BME280;17218;54.070;10.012;2023-03-26T05:29:01;100020.59;;;4.18;100.00
30421;BME280;17218;54.070;10.012;2023-03-26T05:31:29;100030.75;;;4.07;100.00
30421;BME280;17218;54.070;10.012;2023-03-26T05:33:56;100026.34;;;3.90;100.00
30421;BME280;17218;54.070;10.012;2023-03-26T05:36:24;100033.25;;;3.98;100.00
30421;BME280;17218;54.070;10.012;2023-03-26T05:38:53;100027.38;;;4.08;100.00
30421;BME280;17218;54.070;10.012;2023-03-26T05:41:20;100024.81;;;4.08;100.00
30421;BME280;17218;54.070;10.012;2023-03-26T05:43:46;100027.47;;;4.21;100.00
30421;BME280;17218;54.070;10.012;2023-03-26T05:46:13;100033.53;;;4.34;100.00
30421;BME280;17218;54.070;10.012;2023-03-26T05:48:40;100031.84;;;4.39;100.00
30421;BME280;17218;54.070;10.012;2023-03-26T05:51:07;100041.38;;;4.52;100.00
30421;BME280;17218;54.070;10.012;2023-03-26T05:53:33;100039.69;;;4.56;100.00
30421;BME280;17218;54.070;10.012;2023-03-26T05:56:02;100038.81;;;4.57;100.00
30421;BME280;17218;54.070;10.012;2023-03-26T05:58:30;100044.81;;;4.61;100.00
30421;BME280;17218;54.070;10.012;2023-03-26T06:00:58;100041.41;;;4.60;100.00
30421;BME280;17218;54.070;10.012;2023-03-26T06:03:27;100046.56;;;4.70;100.00
30421;BME280;17218;54.070;10.012;2023-03-26T06:05:53;100039.78;;;4.75;100.00
30421;BME280;17218;54.070;10.012;2023-03-26T06:08:20;100051.75;;;4.74;100.00
30421;BME280;17218;54.070;10.012;2023-03-26T06:10:47;100039.81;;;4.81;100.00
30421;BME280;17218;54.070;10.012;2023-03-26T06:13:16;100045.84;;;4.96;100.00
30421;BME280;17218;54.070;10.012;2023-03-26T06:15:43;100054.47;;;5.03;100.00
30421;BME280;17218;54.070;10.012;2023-03-26T06:18:09;100059.59;;;5.01;100.00
30421;BME280;17218;54.070;10.012;2023-03-26T06:20:36;100042.41;;;4.89;100.00
30421;BME280;17218;54.070;10.012;2023-03-26T06:23:02;100050.97;;;4.89;100.00
30421;BME280;17218;54.070;10.012;2023-03-26T06:25:29;100058.72;;;5.02;100.00
30421;BME280;17218;54.070;10.012;2023-03-26T06:27:55;100065.56;;;5.01;100.00
30421;BME280;17218;54.070;10.012;2023-03-26T06:30:23;100062.22;;;5.20;100.00
30421;BME280;17218;54.070;10.012;2023-03-26T06:32:50;100064.00;;;5.32;100.00
30421;BME280;17218;54.070;10.012;2023-03-26T06:35:16;100057.19;;;5.43;100.00
30421;BME280;17218;54.070;10.012;2023-03-26T06:37:43;100058.84;;;5.33;100.00
30421;BME280;17218;54.070;10.012;2023-03-26T06:40:10;100072.53;;;5.23;100.00
30421;BME280;17218;54.070;10.012;2023-03-26T06:42:36;100076.78;;;5.19;100.00
30421;BME280;17218;54.070;10.012;2023-03-26T06:45:04;100068.22;;;5.17;100.00
30421;BME280;17218;54.070;10.012;2023-03-26T06:47:32;100077.63;;;5.18;100.00
30421;BME280;17218;54.070;10.012;2023-03-26T06:49:58;100071.66;;;5.25;100.00
30421;BME280;17218;54.070;10.012;2023-03-26T06:52:25;100082.00;;;5.44;100.00
30421;BME280;17218;54.070;10.012;2023-03-26T06:54:52;100077.78;;;5.64;100.00
30421;BME280;17218;54.070;10.012;2023-03-26T06:57:19;100075.22;;;5.70;100.00
30421;BME280;17218;54.070;10.012;2023-03-26T06:59:45;100076.97;;;5.85;100.00
30421;BME280;17218;54.070;10.012;2023-03-26T07:02:12;100080.47;;;6.06;100.00
30421;BME280;17218;54.070;10.012;2023-03-26T07:04:40;100071.88;;;6.07;100.00
30421;BME280;17218;54.070;10.012;2023-03-26T07:07:06;100069.25;;;5.69;100.00
30421;BME280;17218;54.070;10.012;2023-03-26T07:09:33;100072.66;;;5.71;100.00
30421;BME280;17218;54.070;10.012;2023-03-26T07:11:59;100071.81;;;5.88;100.00
30421;BME280;17218;54.070;10.012;2023-03-26T07:14:26;100071.00;;;6.02;100.00
30421;BME280;17218;54.070;10.012;2023-03-26T07:16:56;100064.16;;;6.05;100.00
30421;BME280;17218;54.070;10.012;2023-03-26T07:19:22;100080.47;;;6.17;100.00
30421;BME280;17218;54.070;10.012;2023-03-26T07:21:51;100072.69;;;6.00;100.00
30421;BME280;17218;54.070;10.012;2023-03-26T07:24:18;100071.03;;;6.08;100.00
30421;BME280;17218;54.070;10.012;2023-03-26T07:26:51;100061.59;;;6.08;100.00
30421;BME280;17218;54.070;10.012;2023-03-26T07:29:29;100071.00;;;6.02;100.00
30421;BME280;17218;54.070;10.012;2023-03-26T07:32:03;100071.88;;;6.07;100.00
30421;BME280;17218;54.070;10.012;2023-03-26T07:34:39;100077.91;;;6.23;100.00
30421;BME280;17218;54.070;10.012;2023-03-26T07:37:18;100074.47;;;6.35;100.00
30421;BME280;17218;54.070;10.012;2023-03-26T07:39:53;100073.63;;;6.28;100.00
30421;BME280;17218;54.070;10.012;2023-03-26T07:42:35;100069.31;;;6.35;100.00
30421;BME280;17218;54.070;10.012;2023-03-26T07:45:14;100080.47;;;6.34;100.00
30421;BME280;17218;54.070;10.012;2023-03-26T07:47:42;100072.72;;;6.42;100.00
30421;BME280;17218;54.070;10.012;2023-03-26T07:50:15;100074.47;;;6.24;100.00
30421;BME280;17218;54.070;10.012;2023-03-26T07:52:43;100075.31;;;6.09;100.00
30421;BME280;17218;54.070;10.012;2023-03-26T07:55:12;100071.84;;;5.97;100.00
30421;BME280;17218;54.070;10.012;2023-03-26T07:57:45;100076.19;;;6.06;100.00
30421;BME280;17218;54.070;10.012;2023-03-26T08:00:17;100076.16;;;6.22;100.00
30421;BME280;17218;54.070;10.012;2023-03-26T08:03:05;100077.03;;;6.35;100.00
30421;BME280;17218;54.070;10.012;2023-03-26T08:05:38;100068.47;;;6.28;100.00
30421;BME280;17218;54.070;10.012;2023-03-26T08:08:15;100071.00;;;6.00;100.00
30421;BME280;17218;54.070;10.012;2023-03-26T08:10:54;100067.56;;;6.04;100.00
30421;BME280;17218;54.070;10.012;2023-03-26T08:13:27;100066.75;;;6.34;100.00
30421;BME280;17218;54.070;10.012;2023-03-26T08:16:05;100075.31;;;6.50;100.00
30421;BME280;17218;54.070;10.012;2023-03-26T08:18:41;100077.00;;;6.59;100.00
30421;BME280;17218;54.070;10.012;2023-03-26T08:21:14;100078.72;;;6.67;100.00
30421;BME280;17218;54.070;10.012;2023-03-26T08:23:51;100083.88;;;6.52;100.00
30421;BME280;17218;54.070;10.012;2023-03-26T08:26:28;100083.00;;;6.53;100.00
30421;BME280;17218;54.070;10.012;2023-03-26T08:29:02;100080.44;;;6.62;100.00
30421;BME280;17218;54.070;10.012;2023-03-26T08:31:34;100081.25;;;6.80;100.00
30421;BME280;17218;54.070;10.012;2023-03-26T08:34:01;100081.22;;;6.96;100.00
30421;BME280;17218;54.070;10.012;2023-03-26T08:36:27;100079.47;;;7.07;100.00
30421;BME280;17218;54.070;10.012;2023-03-26T08:38:55;100081.22;;;6.99;100.00
30421;BME280;17218;54.070;10.012;2023-03-26T08:42:03;100078.66;;;6.92;100.00
30421;BME280;17218;54.070;10.012;2023-03-26T08:45:21;100079.44;;;7.09;100.00
30421;BME280;17218;54.070;10.012;2023-03-26T08:48:17;100087.16;;;7.10;100.00
30421;BME280;17218;54.070;10.012;2023-03-26T08:57:17;100080.06;;;7.67;100.00
30421;BME280;17218;54.070;10.012;2023-03-26T09:00:02;100093.69;;;7.85;100.00
30421;BME280;17218;54.070;10.012;2023-03-26T09:02:55;100083.31;;;7.94;100.00
30421;BME280;17218;54.070;10.012;2023-03-26T09:05:49;100076.38;;;8.06;100.00
30421;BME280;17218;54.070;10.012;2023-03-26T09:08:41;100073.81;;;7.99;100.00
30421;BME280;17218;54.070;10.012;2023-03-26T09:11:31;100067.00;;;7.92;100.00
30421;BME280;17218;54.070;10.012;2023-03-26T09:17:33;100068.84;;;7.71;100.00
30421;BME280;17218;54.070;10.012;2023-03-26T09:21:06;100074.78;;;7.89;100.00
30421;BME280;17218;54.070;10.012;2023-03-26T09:24:01;100077.13;;;8.19;100.00
30421;BME280;17218;54.070;10.012;2023-03-26T09:26:45;100064.88;;;8.43;100.00
30421;BME280;17218;54.070;10.012;2023-03-26T09:29:47;100062.25;;;8.46;100.00
30421;BME280;17218;54.070;10.012;2023-03-26T09:35:50;100066.03;;;9.02;100.00
30421;BME280;17218;54.070;10.012;2023-03-26T09:38:35;100065.97;;;9.06;100.00
30421;BME280;17218;54.070;10.012;2023-03-26T09:41:09;100073.75;;;9.03;100.00
30421;BME280;17218;54.070;10.012;2023-03-26T09:47:07;100086.41;;;8.39;100.00
30421;BME280;17218;54.070;10.012;2023-03-26T09:49:47;100080.41;;;8.38;100.00
30421;BME280;17218;54.070;10.012;2023-03-26T09:52:30;100079.59;;;8.31;100.00
30421;BME280;17218;54.070;10.012;2023-03-26T09:55:26;100083.78;;;8.46;100.00
30421;BME280;17218;54.070;10.012;2023-03-26T09:58:24;100084.28;;;8.86;100.00
30421;BME280;17218;54.070;10.012;2023-03-26T10:00:57;100082.41;;;8.99;100.00
30421;BME280;17218;54.070;10.012;2023-03-26T10:03:41;100094.66;;;8.83;100.00
30421;BME280;17218;54.070;10.012;2023-03-26T10:06:24;100085.41;;;8.58;100.00
30421;BME280;17218;54.070;10.012;2023-03-26T10:09:17;100094.00;;;8.54;100.00
30421;BME280;17218;54.070;10.012;2023-03-26T10:11:57;100089.75;;;8.58;100.00
30421;BME280;17218;54.070;10.012;2023-03-26T10:14:33;100084.59;;;8.52;100.00
30421;BME280;17218;54.070;10.012;2023-03-26T10:17:08;100074.88;;;8.82;100.00
30421;BME280;17218;54.070;10.012;2023-03-26T10:19:51;100074.91;;;9.50;100.00
30421;BME280;17218;54.070;10.012;2023-03-26T10:22:30;100068.69;;;9.62;100.00
30421;BME280;17218;54.070;10.012;2023-03-26T10:25:16;100077.34;;;9.61;100.00
30421;BME280;17218;54.070;10.012;2023-03-26T10:27:52;100078.50;;;9.38;100.00
30421;BME280;17218;54.070;10.012;2023-03-26T10:30:33;100078.56;;;9.33;100.00
30421;BME280;17218;54.070;10.012;2023-03-26T10:33:17;100073.41;;;9.33;100.00
30421;BME280;17218;54.070;10.012;2023-03-26T10:35:55;100079.47;;;9.29;100.00
30421;BME280;17218;54.070;10.012;2023-03-26T10:38:38;100085.50;;;9.31;100.00
30421;BME280;17218;54.070;10.012;2023-03-26T10:41:15;100072.66;;;9.86;100.00
30421;BME280;17218;54.070;10.012;2023-03-26T10:44:03;100073.69;;;10.31;100.00
30421;BME280;17218;54.070;10.012;2023-03-26T10:46:45;100072.28;;;10.13;100.00
30421;BME280;17218;54.070;10.012;2023-03-26T10:49:32;100071.66;;;9.95;100.00
30421;BME280;17218;54.070;10.012;2023-03-26T10:52:08;100083.09;;;9.82;100.00
30421;BME280;17218;54.070;10.012;2023-03-26T10:54:42;100077.63;;;10.00;100.00
30421;BME280;17218;54.070;10.012;2023-03-26T10:57:22;100077.91;;;10.37;100.00
30421;BME280;17218;54.070;10.012;2023-03-26T10:59:50;100084.84;;;10.87;100.00
30421;BME280;17218;54.070;10.012;2023-03-26T11:02:25;100072.22;;;11.14;100.00
30421;BME280;17218;54.070;10.012;2023-03-26T11:04:56;100076.78;;;11.44;100.00
30421;BME280;17218;54.070;10.012;2023-03-26T11:07:31;100086.28;;;11.43;100.00
30421;BME280;17218;54.070;10.012;2023-03-26T11:10:05;100091.44;;;11.04;100.00
30421;BME280;17218;54.070;10.012;2023-03-26T11:12:39;100081.38;;;11.31;100.00
30421;BME280;17218;54.070;10.012;2023-03-26T11:15:20;100084.84;;;12.09;100.00
30421;BME280;17218;54.070;10.012;2023-03-26T11:17:57;100087.44;;;12.79;96.73
30421;BME280;17218;54.070;10.012;2023-03-26T11:20:32;100091.44;;;13.23;100.00
30421;BME280;17218;54.070;10.012;2023-03-26T11:23:11;100087.88;;;13.86;100.00
30421;BME280;17218;54.070;10.012;2023-03-26T11:25:51;100086.47;;;15.07;83.66
30421;BME280;17218;54.070;10.012;2023-03-26T11:28:34;100086.59;;;17.78;67.74
30421;BME280;17218;54.070;10.012;2023-03-26T11:31:06;100082.47;;;19.30;45.84
30421;BME280;17218;54.070;10.012;2023-03-26T11:33:38;100080.16;;;20.80;47.22
30421;BME280;17218;54.070;10.012;2023-03-26T11:36:10;100074.66;;;21.69;41.16
30421;BME280;17218;54.070;10.012;2023-03-26T11:38:41;100069.13;;;22.40;43.39
30421;BME280;17218;54.070;10.012;2023-03-26T11:41:12;100066.03;;;20.81;41.40
30421;BME280;17218;54.070;10.012;2023-03-26T11:43:44;100074.59;;;20.70;39.94
30421;BME280;17218;54.070;10.012;2023-03-26T11:46:16;100082.81;;;20.34;47.10
30421;BME280;17218;54.070;10.012;2023-03-26T11:48:45;100069.56;;;22.86;45.80
30421;BME280;17218;54.070;10.012;2023-03-26T11:51:17;100070.91;;;23.67;40.56
30421;BME280;17218;54.070;10.012;2023-03-26T11:53:45;100084.38;;;23.14;38.32
30421;BME280;17218;54.070;10.012;2023-03-26T11:56:15;100083.09;;;21.47;37.81
30421;BME280;17218;54.070;10.012;2023-03-26T11:58:49;100094.69;;;21.29;40.93
30421;BME280;17218;54.070;10.012;2023-03-26T12:01:20;100086.19;;;21.53;41.13
30421;BME280;17218;54.070;10.012;2023-03-26T12:03:56;100073.16;;;22.98;37.65
30421;BME280;17218;54.070;10.012;2023-03-26T12:06:25;100078.59;;;22.04;35.96
30421;BME280;17218;54.070;10.012;2023-03-26T12:08:53;100081.06;;;21.37;39.15
30421;BME280;17218;54.070;10.012;2023-03-26T12:11:23;100070.19;;;22.51;36.09
30421;BME280;17218;54.070;10.012;2023-03-26T12:13:57;100080.63;;;22.39;35.82
30421;BME280;17218;54.070;10.012;2023-03-26T12:16:25;100079.38;;;20.78;37.97
30421;BME280;17218;54.070;10.012;2023-03-26T12:19:00;100095.72;;;20.54;41.96
30421;BME280;17218;54.070;10.012;2023-03-26T12:21:28;100090.66;;;20.50;36.84
30421;BME280;17218;54.070;10.012;2023-03-26T12:23:57;100084.25;;;20.09;40.65
30421;BME280;17218;54.070;10.012;2023-03-26T12:26:39;100088.41;;;20.73;44.42
30421;BME280;17218;54.070;10.012;2023-03-26T12:29:11;100078.22;;;23.64;39.31
30421;BME280;17218;54.070;10.012;2023-03-26T12:31:51;100078.84;;;26.30;34.69
30421;BME280;17218;54.070;10.012;2023-03-26T12:34:21;100075.94;;;27.27;31.30
30421;BME280;17218;54.070;10.012;2023-03-26T12:36:51;100074.06;;;26.45;32.29
30421;BME280;17218;54.070;10.012;2023-03-26T12:39:26;100074.19;;;26.22;32.99
30421;BME280;17218;54.070;10.012;2023-03-26T12:41:54;100067.22;;;26.74;32.70
30421;BME280;17218;54.070;10.012;2023-03-26T12:44:25;100060.84;;;27.67;30.78
30421;BME280;17218;54.070;10.012;2023-03-26T12:47:07;100066.13;;;27.57;29.06
30421;BME280;17218;54.070;10.012;2023-03-26T12:49:34;100065.56;;;28.23;29.93
30421;BME280;17218;54.070;10.012;2023-03-26T12:52:10;100062.66;;;27.96;29.10
30421;BME280;17218;54.070;10.012;2023-03-26T12:54:44;100063.31;;;27.19;31.55
30421;BME280;17218;54.070;10.012;2023-03-26T12:57:18;100069.66;;;26.87;28.66
30421;BME280;17218;54.070;10.012;2023-03-26T13:00:02;100073.13;;;25.70;29.67
30421;BME280;17218;54.070;10.012;2023-03-26T13:02:52;100075.53;;;24.83;31.93
30421;BME280;17218;54.070;10.012;2023-03-26T13:05:34;100063.06;;;26.91;30.92
30421;BME280;17218;54.070;10.012;2023-03-26T13:08:31;100065.63;;;27.73;27.32
30421;BME280;17218;54.070;10.012;2023-03-26T13:11:09;100069.34;;;27.41;29.18
30421;BME280;17218;54.070;10.012;2023-03-26T13:14:02;100064.75;;;27.63;26.24
30421;BME280;17218;54.070;10.012;2023-03-26T13:16:39;100061.50;;;29.70;27.74
30421;BME280;17218;54.070;10.012;2023-03-26T13:19:14;100060.06;;;30.55;26.06
30421;BME280;17218;54.070;10.012;2023-03-26T13:21:53;100056.66;;;29.92;24.72
30421;BME280;17218;54.070;10.012;2023-03-26T13:24:30;100058.03;;;29.96;26.42
30421;BME280;17218;54.070;10.012;2023-03-26T13:27:08;100059.94;;;28.46;26.98